sensor_id;sensor_type;location;lat;lon;timestamp;temperature;humidity
49236;DHT22;35067;48.134;8.378;2023-08-08T00:00:06;11.40;99.90
49236;DHT22;35067;48.134;8.378;2023-08-08T00:01:07;11.40;99.90
49236;DHT22;35067;48.134;8.378;2023-08-08T00:02:08;11.40;99.90
49236;DHT22;35067;48.134;8.378;2023-08-08T00:03:08;11.40;99.90
49236;DHT22;35067;48.134;8.378;2023-08-08T00:04:10;11.50;99.90
49236;DHT22;35067;48.134;8.378;2023-08-08T00:05:11;11.40;99.90
49236;DHT22;35067;48.134;8.378;2023-08-08T00:06:11;11.40;99.90
49236;DHT22;35067;48.134;8.378;2023-08-08T00:07:12;11.40;99.90
49236;DHT22;35067;48.134;8.378;2023-08-08T00:08:13;11.30;99.90
49236;DHT22;35067;48.134;8.378;2023-08-08T00:09:13;11.30;99.90
49236;DHT22;35067;48.134;8.378;2023-08-08T00:10:14;11.30;99.90
49236;DHT22;35067;48.134;8.378;2023-08-08T00:11:15;11.30;99.90
49236;DHT22;35067;48.134;8.378;2023-08-08T00:12:15;11.40;99.90
49236;DHT22;35067;48.134;8.378;2023-08-08T00:13:16;11.50;99.90
49236;DHT22;35067;48.134;8.378;2023-08-08T00:14:17;11.30;99.90
49236;DHT22;35067;48.134;8.378;2023-08-08T00:15:17;11.30;99.90
49236;DHT22;35067;48.134;8.378;2023-08-08T00:16:18;11.30;99.90
49236;DHT22;35067;48.134;8.378;2023-08-08T00:17:20;11.20;99.90
49236;DHT22;35067;48.134;8.378;2023-08-08T00:18:21;11.30;99.90
49236;DHT22;35067;48.134;8.378;2023-08-08T00:19:21;11.40;99.90
49236;DHT22;35067;48.134;8.378;2023-08-08T00:20:22;11.40;99.90
49236;DHT22;35067;48.134;8.378;2023-08-08T00:21:23;11.50;99.90
49236;DHT22;35067;48.134;8.378;2023-08-08T00:22:23;11.50;99.90
49236;DHT22;35067;48.134;8.378;2023-08-08T00:23:24;11.40;99.90
49236;DHT22;35067;48.134;8.378;2023-08-08T00:24:25;11.40;99.90
49236;DHT22;35067;48.134;8.378;2023-08-08T00:25:25;11.40;99.90
49236;DHT22;35067;48.134;8.378;2023-08-08T00:26:26;11.40;99.90
49236;DHT22;35067;48.134;8.378;2023-08-08T00:27:27;11.40;99.90
49236;DHT22;35067;48.134;8.378;2023-08-08T00:28:28;11.40;99.90
49236;DHT22;35067;48.134;8.378;2023-08-08T00:29:28;11.50;99.90
49236;DHT22;35067;48.134;8.378;2023-08-08T00:30:29;11.40;99.90
49236;DHT22;35067;48.134;8.378;2023-08-08T00:31:30;11.40;99.90
49236;DHT22;35067;48.134;8.378;2023-08-08T00:32:30;11.60;99.90
49236;DHT22;35067;48.134;8.378;2023-08-08T00:33:31;11.50;99.90
49236;DHT22;35067;48.134;8.378;2023-08-08T00:34:32;11.40;99.90
49236;DHT22;35067;48.134;8.378;2023-08-08T00:35:32;11.40;99.90
49236;DHT22;35067;48.134;8.378;2023-08-08T00:36:33;11.40;99.90
49236;DHT22;35067;48.134;8.378;2023-08-08T00:37:34;11.30;99.90
49236;DHT22;35067;48.134;8.378;2023-08-08T00:38:34;11.30;99.90
49236;DHT22;35067;48.134;8.378;2023-08-08T00:39:35;11.30;99.90
49236;DHT22;35067;48.134;8.378;2023-08-08T00:40:36;11.30;99.90
49236;DHT22;35067;48.134;8.378;2023-08-08T00:41:36;11.30;99.90
49236;DHT22;35067;48.134;8.378;2023-08-08T00:42:37;11.30;99.90
49236;DHT22;35067;48.134;8.378;2023-08-08T00:43:38;11.30;99.90
49236;DHT22;35067;48.134;8.378;2023-08-08T00:44:39;11.30;99.90
49236;DHT22;35067;48.134;8.378;2023-08-08T00:45:43;11.20;99.90
49236;DHT22;35067;48.134;8.378;2023-08-08T00:46:44;11.20;99.90
49236;DHT22;35067;48.134;8.378;2023-08-08T00:47:45;11.20;99.90
49236;DHT22;35067;48.134;8.378;2023-08-08T00:48:46;11.10;99.90
49236;DHT22;35067;48.134;8.378;2023-08-08T00:49:47;11.00;99.90
49236;DHT22;35067;48.134;8.378;2023-08-08T00:50:50;11.00;99.90
49236;DHT22;35067;48.134;8.378;2023-08-08T00:51:51;11.10;99.90
49236;DHT22;35067;48.134;8.378;2023-08-08T00:52:52;11.10;99.90
49236;DHT22;35067;48.134;8.378;2023-08-08T00:53:53;11.10;99.90
49236;DHT22;35067;48.134;8.378;2023-08-08T00:54:54;11.10;99.90
49236;DHT22;35067;48.134;8.378;2023-08-08T00:55:55;11.10;99.90
49236;DHT22;35067;48.134;8.378;2023-08-08T00:56:56;11.10;99.90
49236;DHT22;35067;48.134;8.378;2023-08-08T00:57:57;11.10;99.90
49236;DHT22;35067;48.134;8.378;2023-08-08T00:58:57;11.00;99.90
49236;DHT22;35067;48.134;8.378;2023-08-08T00:59:58;11.00;99.90
49236;DHT22;35067;48.134;8.378;2023-08-08T01:00:59;11.00;99.90
49236;DHT22;35067;48.134;8.378;2023-08-08T01:02:00;11.00;99.90
49236;DHT22;35067;48.134;8.378;2023-08-08T01:03:01;11.00;99.90
49236;DHT22;35067;48.134;8.378;2023-08-08T01:04:01;11.00;99.90
49236;DHT22;35067;48.134;8.378;2023-08-08T01:05:07;11.00;99.90
49236;DHT22;35067;48.134;8.378;2023-08-08T01:06:31;11.00;99.90
49236;DHT22;35067;48.134;8.378;2023-08-08T01:08:05;11.00;99.90
49236;DHT22;35067;48.134;8.378;2023-08-08T01:09:18;11.00;99.90
49236;DHT22;35067;48.134;8.378;2023-08-08T01:10:32;11.00;99.90
49236;DHT22;35067;48.134;8.378;2023-08-08T01:11:34;11.00;99.90
49236;DHT22;35067;48.134;8.378;2023-08-08T01:12:40;11.10;99.90
49236;DHT22;35067;48.134;8.378;2023-08-08T01:13:44;11.00;99.90
49236;DHT22;35067;48.134;8.378;2023-08-08T01:14:47;11.00;99.90
49236;DHT22;35067;48.134;8.378;2023-08-08T01:15:48;11.10;99.90
49236;DHT22;35067;48.134;8.378;2023-08-08T01:16:50;11.20;99.90
49236;DHT22;35067;48.134;8.378;2023-08-08T01:17:58;11.30;99.90
49236;DHT22;35067;48.134;8.378;2023-08-08T01:18:59;11.30;99.90
49236;DHT22;35067;48.134;8.378;2023-08-08T01:20:00;11.40;99.90
49236;DHT22;35067;48.134;8.378;2023-08-08T01:21:04;11.30;99.90
49236;DHT22;35067;48.134;8.378;2023-08-08T01:22:09;11.30;99.90
49236;DHT22;35067;48.134;8.378;2023-08-08T01:23:34;11.30;99.90
49236;DHT22;35067;48.134;8.378;2023-08-08T01:24:53;11.30;99.90
49236;DHT22;35067;48.134;8.378;2023-08-08T01:25:56;11.10;99.90
49236;DHT22;35067;48.134;8.378;2023-08-08T01:26:59;11.00;99.90
49236;DHT22;35067;48.134;8.378;2023-08-08T01:28:00;11.00;99.90
49236;DHT22;35067;48.134;8.378;2023-08-08T01:29:01;11.00;99.90
49236;DHT22;35067;48.134;8.378;2023-08-08T01:30:02;11.00;99.90
49236;DHT22;35067;48.134;8.378;2023-08-08T01:31:04;10.90;99.90
49236;DHT22;35067;48.134;8.378;2023-08-08T01:32:05;10.80;99.90
49236;DHT22;35067;48.134;8.378;2023-08-08T01:33:07;10.80;99.90
49236;DHT22;35067;48.134;8.378;2023-08-08T01:34:08;10.80;99.90
49236;DHT22;35067;48.134;8.378;2023-08-08T01:35:09;10.80;99.90
49236;DHT22;35067;48.134;8.378;2023-08-08T01:36:25;10.80;99.90
49236;DHT22;35067;48.134;8.378;2023-08-08T01:37:34;10.90;99.90
49236;DHT22;35067;48.134;8.378;2023-08-08T01:38:41;10.80;99.90
49236;DHT22;35067;48.134;8.378;2023-08-08T01:39:44;10.90;99.90
49236;DHT22;35067;48.134;8.378;2023-08-08T01:40:46;10.90;99.90
49236;DHT22;35067;48.134;8.378;2023-08-08T01:41:48;10.90;99.90
49236;DHT22;35067;48.134;8.378;2023-08-08T01:42:49;10.90;99.90
49236;DHT22;35067;48.134;8.378;2023-08-08T01:43:50;10.90;99.90
49236;DHT22;35067;48.134;8.378;2023-08-08T01:44:53;11.00;99.90
49236;DHT22;35067;48.134;8.378;2023-08-08T01:45:55;10.90;99.90
49236;DHT22;35067;48.134;8.378;2023-08-08T01:46:56;10.90;99.90
49236;DHT22;35067;48.134;8.378;2023-08-08T01:47:56;10.90;99.90
49236;DHT22;35067;48.134;8.378;2023-08-08T01:48:58;10.90;99.90
49236;DHT22;35067;48.134;8.378;2023-08-08T01:49:59;10.90;99.90
49236;DHT22;35067;48.134;8.378;2023-08-08T01:51:00;10.80;99.90
49236;DHT22;35067;48.134;8.378;2023-08-08T01:52:01;10.70;99.90
49236;DHT22;35067;48.134;8.378;2023-08-08T01:53:02;10.70;99.90
49236;DHT22;35067;48.134;8.378;2023-08-08T01:54:03;10.70;99.90
49236;DHT22;35067;48.134;8.378;2023-08-08T01:55:04;10.70;99.90
49236;DHT22;35067;48.134;8.378;2023-08-08T01:56:05;10.80;99.90
49236;DHT22;35067;48.134;8.378;2023-08-08T01:57:06;10.90;99.90
49236;DHT22;35067;48.134;8.378;2023-08-08T01:58:07;11.00;99.90
49236;DHT22;35067;48.134;8.378;2023-08-08T01:59:07;11.00;99.90
49236;DHT22;35067;48.134;8.378;2023-08-08T02:00:08;11.00;99.90
49236;DHT22;35067;48.134;8.378;2023-08-08T02:01:09;11.10;99.90
49236;DHT22;35067;48.134;8.378;2023-08-08T02:02:10;11.10;99.90
49236;DHT22;35067;48.134;8.378;2023-08-08T02:03:11;10.90;99.90
49236;DHT22;35067;48.134;8.378;2023-08-08T02:04:12;11.00;99.90
49236;DHT22;35067;48.134;8.378;2023-08-08T02:05:12;11.10;99.90
49236;DHT22;35067;48.134;8.378;2023-08-08T02:06:13;11.10;99.90
49236;DHT22;35067;48.134;8.378;2023-08-08T02:07:14;11.10;99.90
49236;DHT22;35067;48.134;8.378;2023-08-08T02:08:14;11.10;99.90
49236;DHT22;35067;48.134;8.378;2023-08-08T02:09:15;11.10;99.90
49236;DHT22;35067;48.134;8.378;2023-08-08T02:10:16;11.10;99.90
49236;DHT22;35067;48.134;8.378;2023-08-08T02:11:16;11.20;99.90
49236;DHT22;35067;48.134;8.378;2023-08-08T02:12:17;11.10;99.90
49236;DHT22;35067;48.134;8.378;2023-08-08T02:13:18;11.10;99.90
49236;DHT22;35067;48.134;8.378;2023-08-08T02:14:18;11.10;99.90
49236;DHT22;35067;48.134;8.378;2023-08-08T02:15:19;11.10;99.90
49236;DHT22;35067;48.134;8.378;2023-08-08T02:16:20;11.10;99.90
49236;DHT22;35067;48.134;8.378;2023-08-08T02:17:21;11.10;99.90
49236;DHT22;35067;48.134;8.378;2023-08-08T02:18:21;11.10;99.90
49236;DHT22;35067;48.134;8.378;2023-08-08T02:19:22;11.20;99.90
49236;DHT22;35067;48.134;8.378;2023-08-08T02:20:23;11.20;99.90
49236;DHT22;35067;48.134;8.378;2023-08-08T02:21:23;11.10;99.90
49236;DHT22;35067;48.134;8.378;2023-08-08T02:22:25;11.00;99.90
49236;DHT22;35067;48.134;8.378;2023-08-08T02:23:25;11.00;99.90
49236;DHT22;35067;48.134;8.378;2023-08-08T02:24:26;11.10;99.90
49236;DHT22;35067;48.134;8.378;2023-08-08T02:25:27;11.00;99.90
49236;DHT22;35067;48.134;8.378;2023-08-08T02:26:28;11.00;99.90
49236;DHT22;35067;48.134;8.378;2023-08-08T02:27:28;11.00;99.90
49236;DHT22;35067;48.134;8.378;2023-08-08T02:28:29;11.10;99.90
49236;DHT22;35067;48.134;8.378;2023-08-08T02:29:30;11.10;99.90
49236;DHT22;35067;48.134;8.378;2023-08-08T02:30:31;11.10;99.90
49236;DHT22;35067;48.134;8.378;2023-08-08T02:31:31;11.10;99.90
49236;DHT22;35067;48.134;8.378;2023-08-08T02:32:32;11.10;99.90
49236;DHT22;35067;48.134;8.378;2023-08-08T02:33:33;11.20;99.90
49236;DHT22;35067;48.134;8.378;2023-08-08T02:34:33;11.30;99.90
49236;DHT22;35067;48.134;8.378;2023-08-08T02:35:36;11.20;99.90
49236;DHT22;35067;48.134;8.378;2023-08-08T02:36:37;11.10;99.90
49236;DHT22;35067;48.134;8.378;2023-08-08T02:37:38;11.10;99.90
49236;DHT22;35067;48.134;8.378;2023-08-08T02:38:39;11.00;99.90
49236;DHT22;35067;48.134;8.378;2023-08-08T02:39:39;11.00;99.90
49236;DHT22;35067;48.134;8.378;2023-08-08T02:40:41;10.80;99.90
49236;DHT22;35067;48.134;8.378;2023-08-08T02:41:42;10.90;99.90
49236;DHT22;35067;48.134;8.378;2023-08-08T02:42:43;11.00;99.90
49236;DHT22;35067;48.134;8.378;2023-08-08T02:43:43;11.00;99.90
49236;DHT22;35067;48.134;8.378;2023-08-08T02:44:45;11.20;99.90
49236;DHT22;35067;48.134;8.378;2023-08-08T02:45:46;11.20;99.90
49236;DHT22;35067;48.134;8.378;2023-08-08T02:46:47;11.20;99.90
49236;DHT22;35067;48.134;8.378;2023-08-08T02:47:47;11.30;99.90
49236;DHT22;35067;48.134;8.378;2023-08-08T02:48:48;11.40;99.90
49236;DHT22;35067;48.134;8.378;2023-08-08T02:49:49;11.40;99.90
49236;DHT22;35067;48.134;8.378;2023-08-08T02:50:49;11.50;99.90
49236;DHT22;35067;48.134;8.378;2023-08-08T02:51:50;11.40;99.90
49236;DHT22;35067;48.134;8.378;2023-08-08T02:52:51;11.40;99.90
49236;DHT22;35067;48.134;8.378;2023-08-08T02:53:52;11.50;99.90
49236;DHT22;35067;48.134;8.378;2023-08-08T02:54:52;11.40;99.90
49236;DHT22;35067;48.134;8.378;2023-08-08T02:55:53;11.50;99.90
49236;DHT22;35067;48.134;8.378;2023-08-08T02:56:54;11.40;99.90
49236;DHT22;35067;48.134;8.378;2023-08-08T02:57:55;11.40;99.90
49236;DHT22;35067;48.134;8.378;2023-08-08T02:58:55;11.40;99.90
49236;DHT22;35067;48.134;8.378;2023-08-08T02:59:56;11.50;99.90
49236;DHT22;35067;48.134;8.378;2023-08-08T03:00:57;11.50;99.90
49236;DHT22;35067;48.134;8.378;2023-08-08T03:01:57;11.40;99.90
49236;DHT22;35067;48.134;8.378;2023-08-08T03:02:58;11.30;99.90
49236;DHT22;35067;48.134;8.378;2023-08-08T03:03:59;11.30;99.90
49236;DHT22;35067;48.134;8.378;2023-08-08T03:05:00;11.30;99.90
49236;DHT22;35067;48.134;8.378;2023-08-08T03:06:01;11.30;99.90
49236;DHT22;35067;48.134;8.378;2023-08-08T03:07:02;11.20;99.90
49236;DHT22;35067;48.134;8.378;2023-08-08T03:08:04;10.90;99.90
49236;DHT22;35067;48.134;8.378;2023-08-08T03:09:05;10.80;99.90
49236;DHT22;35067;48.134;8.378;2023-08-08T03:10:06;10.70;99.90
49236;DHT22;35067;48.134;8.378;2023-08-08T03:11:07;10.70;99.90
49236;DHT22;35067;48.134;8.378;2023-08-08T03:12:08;10.60;99.90
49236;DHT22;35067;48.134;8.378;2023-08-08T03:13:09;10.60;99.90
49236;DHT22;35067;48.134;8.378;2023-08-08T03:14:09;10.60;99.90
49236;DHT22;35067;48.134;8.378;2023-08-08T03:15:10;10.60;99.90
49236;DHT22;35067;48.134;8.378;2023-08-08T03:16:11;10.70;99.90
49236;DHT22;35067;48.134;8.378;2023-08-08T03:17:12;10.70;99.90
49236;DHT22;35067;48.134;8.378;2023-08-08T03:18:12;10.60;99.90
49236;DHT22;35067;48.134;8.378;2023-08-08T03:19:13;10.60;99.90
49236;DHT22;35067;48.134;8.378;2023-08-08T03:20:14;10.50;99.90
49236;DHT22;35067;48.134;8.378;2023-08-08T03:21:15;10.40;99.90
49236;DHT22;35067;48.134;8.378;2023-08-08T03:22:15;10.40;99.90
49236;DHT22;35067;48.134;8.378;2023-08-08T03:23:16;10.30;99.90
49236;DHT22;35067;48.134;8.378;2023-08-08T03:24:17;10.40;99.90
49236;DHT22;35067;48.134;8.378;2023-08-08T03:25:18;10.30;99.90
49236;DHT22;35067;48.134;8.378;2023-08-08T03:26:18;10.40;99.90
49236;DHT22;35067;48.134;8.378;2023-08-08T03:27:19;10.50;99.90
49236;DHT22;35067;48.134;8.378;2023-08-08T03:28:20;10.50;99.90
49236;DHT22;35067;48.134;8.378;2023-08-08T03:29:20;10.40;99.90
49236;DHT22;35067;48.134;8.378;2023-08-08T03:30:21;10.40;99.90
49236;DHT22;35067;48.134;8.378;2023-08-08T03:31:22;10.40;99.90
49236;DHT22;35067;48.134;8.378;2023-08-08T03:32:23;10.40;99.90
49236;DHT22;35067;48.134;8.378;2023-08-08T03:33:23;10.40;99.90
49236;DHT22;35067;48.134;8.378;2023-08-08T03:34:24;10.40;99.90
49236;DHT22;35067;48.134;8.378;2023-08-08T03:35:25;10.40;99.90
49236;DHT22;35067;48.134;8.378;2023-08-08T03:36:25;10.40;99.90
49236;DHT22;35067;48.134;8.378;2023-08-08T03:37:26;10.40;99.90
49236;DHT22;35067;48.134;8.378;2023-08-08T03:38:27;10.40;99.90
49236;DHT22;35067;48.134;8.378;2023-08-08T03:39:27;10.50;99.90
49236;DHT22;35067;48.134;8.378;2023-08-08T03:40:28;10.50;99.90
49236;DHT22;35067;48.134;8.378;2023-08-08T03:41:29;10.50;99.90
49236;DHT22;35067;48.134;8.378;2023-08-08T03:42:30;10.40;99.90
49236;DHT22;35067;48.134;8.378;2023-08-08T03:43:30;10.50;99.90
49236;DHT22;35067;48.134;8.378;2023-08-08T03:44:32;10.60;99.90
49236;DHT22;35067;48.134;8.378;2023-08-08T03:45:32;10.50;99.90
49236;DHT22;35067;48.134;8.378;2023-08-08T03:46:33;10.50;99.90
49236;DHT22;35067;48.134;8.378;2023-08-08T03:47:34;10.50;99.90
49236;DHT22;35067;48.134;8.378;2023-08-08T03:48:35;10.50;99.90
49236;DHT22;35067;48.134;8.378;2023-08-08T03:49:35;10.40;99.90
49236;DHT22;35067;48.134;8.378;2023-08-08T03:50:36;10.40;99.90
49236;DHT22;35067;48.134;8.378;2023-08-08T03:51:37;10.30;99.90
49236;DHT22;35067;48.134;8.378;2023-08-08T03:52:37;10.30;99.90
49236;DHT22;35067;48.134;8.378;2023-08-08T03:53:38;10.20;99.90
49236;DHT22;35067;48.134;8.378;2023-08-08T03:54:39;10.30;99.90
49236;DHT22;35067;48.134;8.378;2023-08-08T03:55:39;10.30;99.90
49236;DHT22;35067;48.134;8.378;2023-08-08T03:56:40;10.20;99.90
49236;DHT22;35067;48.134;8.378;2023-08-08T03:57:41;10.20;99.90
49236;DHT22;35067;48.134;8.378;2023-08-08T03:58:42;10.20;99.90
49236;DHT22;35067;48.134;8.378;2023-08-08T03:59:43;10.20;99.90
49236;DHT22;35067;48.134;8.378;2023-08-08T04:00:44;10.20;99.90
49236;DHT22;35067;48.134;8.378;2023-08-08T04:01:46;10.20;99.90
49236;DHT22;35067;48.134;8.378;2023-08-08T04:02:47;10.20;99.90
49236;DHT22;35067;48.134;8.378;2023-08-08T04:03:48;10.10;99.90
49236;DHT22;35067;48.134;8.378;2023-08-08T04:04:48;10.10;99.90
49236;DHT22;35067;48.134;8.378;2023-08-08T04:05:49;10.10;99.90
49236;DHT22;35067;48.134;8.378;2023-08-08T04:06:50;10.10;99.90
49236;DHT22;35067;48.134;8.378;2023-08-08T04:07:50;10.10;99.90
49236;DHT22;35067;48.134;8.378;2023-08-08T04:08:51;10.00;99.90
49236;DHT22;35067;48.134;8.378;2023-08-08T04:09:52;10.00;99.90
49236;DHT22;35067;48.134;8.378;2023-08-08T04:10:52;9.90;99.90
49236;DHT22;35067;48.134;8.378;2023-08-08T04:11:54;9.90;99.90
49236;DHT22;35067;48.134;8.378;2023-08-08T04:12:55;9.90;99.90
49236;DHT22;35067;48.134;8.378;2023-08-08T04:13:55;9.90;99.90
49236;DHT22;35067;48.134;8.378;2023-08-08T04:14:56;9.80;99.90
49236;DHT22;35067;48.134;8.378;2023-08-08T04:15:56;9.80;99.90
49236;DHT22;35067;48.134;8.378;2023-08-08T04:16:57;9.70;99.90
49236;DHT22;35067;48.134;8.378;2023-08-08T04:17:58;9.60;99.90
49236;DHT22;35067;48.134;8.378;2023-08-08T04:18:59;9.60;99.90
49236;DHT22;35067;48.134;8.378;2023-08-08T04:20:00;9.60;99.90
49236;DHT22;35067;48.134;8.378;2023-08-08T04:21:00;9.70;99.90
49236;DHT22;35067;48.134;8.378;2023-08-08T04:22:01;9.80;99.90
49236;DHT22;35067;48.134;8.378;2023-08-08T04:23:02;9.80;99.90
49236;DHT22;35067;48.134;8.378;2023-08-08T04:24:03;9.80;99.90
49236;DHT22;35067;48.134;8.378;2023-08-08T04:25:04;9.80;99.90
49236;DHT22;35067;48.134;8.378;2023-08-08T04:26:05;9.80;99.90
49236;DHT22;35067;48.134;8.378;2023-08-08T04:27:06;9.80;99.90
49236;DHT22;35067;48.134;8.378;2023-08-08T04:28:07;9.80;99.90
49236;DHT22;35067;48.134;8.378;2023-08-08T04:29:07;9.80;99.90
49236;DHT22;35067;48.134;8.378;2023-08-08T04:30:08;9.80;99.90
49236;DHT22;35067;48.134;8.378;2023-08-08T04:31:09;9.90;99.90
49236;DHT22;35067;48.134;8.378;2023-08-08T04:32:10;9.90;99.90
49236;DHT22;35067;48.134;8.378;2023-08-08T04:33:11;9.90;99.90
49236;DHT22;35067;48.134;8.378;2023-08-08T04:34:11;9.90;99.90
49236;DHT22;35067;48.134;8.378;2023-08-08T04:35:12;9.90;99.90
49236;DHT22;35067;48.134;8.378;2023-08-08T04:36:13;9.90;99.90
49236;DHT22;35067;48.134;8.378;2023-08-08T04:37:13;9.90;99.90
49236;DHT22;35067;48.134;8.378;2023-08-08T04:38:14;9.90;99.90
49236;DHT22;35067;48.134;8.378;2023-08-08T04:39:18;9.90;99.90
49236;DHT22;35067;48.134;8.378;2023-08-08T04:40:18;10.00;99.90
49236;DHT22;35067;48.134;8.378;2023-08-08T04:41:19;10.00;99.90
49236;DHT22;35067;48.134;8.378;2023-08-08T04:42:21;9.90;99.90
49236;DHT22;35067;48.134;8.378;2023-08-08T04:43:22;9.90;99.90
49236;DHT22;35067;48.134;8.378;2023-08-08T04:44:22;9.90;99.90
49236;DHT22;35067;48.134;8.378;2023-08-08T04:45:23;9.90;99.90
49236;DHT22;35067;48.134;8.378;2023-08-08T04:46:24;10.00;99.90
49236;DHT22;35067;48.134;8.378;2023-08-08T04:47:25;9.90;99.90
49236;DHT22;35067;48.134;8.378;2023-08-08T04:48:25;9.90;99.90
49236;DHT22;35067;48.134;8.378;2023-08-08T04:49:26;9.90;99.90
49236;DHT22;35067;48.134;8.378;2023-08-08T04:50:27;9.90;99.90
49236;DHT22;35067;48.134;8.378;2023-08-08T04:51:28;9.90;99.90
49236;DHT22;35067;48.134;8.378;2023-08-08T04:52:29;9.80;99.90
49236;DHT22;35067;48.134;8.378;2023-08-08T04:53:29;9.80;99.90
49236;DHT22;35067;48.134;8.378;2023-08-08T04:54:30;9.80;99.90
49236;DHT22;35067;48.134;8.378;2023-08-08T04:55:31;9.80;99.90
49236;DHT22;35067;48.134;8.378;2023-08-08T04:56:32;9.80;99.90
49236;DHT22;35067;48.134;8.378;2023-08-08T04:57:32;9.80;99.90
49236;DHT22;35067;48.134;8.378;2023-08-08T04:58:33;9.80;99.90
49236;DHT22;35067;48.134;8.378;2023-08-08T04:59:34;9.80;99.90
49236;DHT22;35067;48.134;8.378;2023-08-08T05:00:34;9.60;99.90
49236;DHT22;35067;48.134;8.378;2023-08-08T05:01:35;9.60;99.90
49236;DHT22;35067;48.134;8.378;2023-08-08T05:02:36;9.60;99.90
49236;DHT22;35067;48.134;8.378;2023-08-08T05:03:38;9.60;99.90
49236;DHT22;35067;48.134;8.378;2023-08-08T05:04:39;9.70;99.90
49236;DHT22;35067;48.134;8.378;2023-08-08T05:05:40;9.70;99.90
49236;DHT22;35067;48.134;8.378;2023-08-08T05:06:40;9.80;99.90
49236;DHT22;35067;48.134;8.378;2023-08-08T05:07:41;9.70;99.90
49236;DHT22;35067;48.134;8.378;2023-08-08T05:08:42;9.70;99.90
49236;DHT22;35067;48.134;8.378;2023-08-08T05:09:43;9.80;99.90
49236;DHT22;35067;48.134;8.378;2023-08-08T05:10:43;9.70;99.90
49236;DHT22;35067;48.134;8.378;2023-08-08T05:11:44;9.80;99.90
49236;DHT22;35067;48.134;8.378;2023-08-08T05:12:45;9.90;99.90
49236;DHT22;35067;48.134;8.378;2023-08-08T05:13:46;9.80;99.90
49236;DHT22;35067;48.134;8.378;2023-08-08T05:14:46;9.70;99.90
49236;DHT22;35067;48.134;8.378;2023-08-08T05:15:47;9.80;99.90
49236;DHT22;35067;48.134;8.378;2023-08-08T05:16:48;9.80;99.90
49236;DHT22;35067;48.134;8.378;2023-08-08T05:17:48;9.90;99.90
49236;DHT22;35067;48.134;8.378;2023-08-08T05:18:49;9.90;99.90
49236;DHT22;35067;48.134;8.378;2023-08-08T05:19:50;10.00;99.90
49236;DHT22;35067;48.134;8.378;2023-08-08T05:20:50;10.00;99.90
49236;DHT22;35067;48.134;8.378;2023-08-08T05:21:52;10.10;99.90
49236;DHT22;35067;48.134;8.378;2023-08-08T05:22:53;10.10;99.90
49236;DHT22;35067;48.134;8.378;2023-08-08T05:23:54;10.10;99.90
49236;DHT22;35067;48.134;8.378;2023-08-08T05:24:54;10.20;99.90
49236;DHT22;35067;48.134;8.378;2023-08-08T05:25:55;10.00;99.90
49236;DHT22;35067;48.134;8.378;2023-08-08T05:26:56;10.00;99.90
49236;DHT22;35067;48.134;8.378;2023-08-08T05:27:57;10.00;99.90
49236;DHT22;35067;48.134;8.378;2023-08-08T05:28:57;10.10;99.90
49236;DHT22;35067;48.134;8.378;2023-08-08T05:29:58;10.00;99.90
49236;DHT22;35067;48.134;8.378;2023-08-08T05:30:59;10.10;99.90
49236;DHT22;35067;48.134;8.378;2023-08-08T05:31:59;10.00;99.90
49236;DHT22;35067;48.134;8.378;2023-08-08T05:33:00;10.10;99.90
49236;DHT22;35067;48.134;8.378;2023-08-08T05:34:01;10.20;99.90
49236;DHT22;35067;48.134;8.378;2023-08-08T05:35:02;10.20;99.90
49236;DHT22;35067;48.134;8.378;2023-08-08T05:36:04;10.20;99.90
49236;DHT22;35067;48.134;8.378;2023-08-08T05:37:05;10.30;99.90
49236;DHT22;35067;48.134;8.378;2023-08-08T05:38:06;10.20;99.90
49236;DHT22;35067;48.134;8.378;2023-08-08T05:39:07;10.20;99.90
49236;DHT22;35067;48.134;8.378;2023-08-08T05:40:08;10.30;99.90
49236;DHT22;35067;48.134;8.378;2023-08-08T05:41:10;10.40;99.90
49236;DHT22;35067;48.134;8.378;2023-08-08T05:42:11;10.50;99.90
49236;DHT22;35067;48.134;8.378;2023-08-08T05:43:11;10.50;99.90
49236;DHT22;35067;48.134;8.378;2023-08-08T05:44:17;10.60;99.90
49236;DHT22;35067;48.134;8.378;2023-08-08T05:45:18;10.60;99.90
49236;DHT22;35067;48.134;8.378;2023-08-08T05:46:18;10.60;99.90
49236;DHT22;35067;48.134;8.378;2023-08-08T05:47:19;10.70;99.90
49236;DHT22;35067;48.134;8.378;2023-08-08T05:48:20;10.80;99.90
49236;DHT22;35067;48.134;8.378;2023-08-08T05:49:20;10.80;99.90
49236;DHT22;35067;48.134;8.378;2023-08-08T05:50:21;10.90;99.90
49236;DHT22;35067;48.134;8.378;2023-08-08T05:51:22;11.00;99.90
49236;DHT22;35067;48.134;8.378;2023-08-08T05:52:22;11.00;99.90
49236;DHT22;35067;48.134;8.378;2023-08-08T05:53:23;11.10;99.90
49236;DHT22;35067;48.134;8.378;2023-08-08T05:54:24;11.20;99.90
49236;DHT22;35067;48.134;8.378;2023-08-08T05:55:25;11.20;99.90
49236;DHT22;35067;48.134;8.378;2023-08-08T05:56:34;11.20;99.90
49236;DHT22;35067;48.134;8.378;2023-08-08T05:57:36;11.20;99.90
49236;DHT22;35067;48.134;8.378;2023-08-08T05:58:38;10.90;99.90
49236;DHT22;35067;48.134;8.378;2023-08-08T05:59:38;10.70;99.90
49236;DHT22;35067;48.134;8.378;2023-08-08T06:00:41;10.70;99.90
49236;DHT22;35067;48.134;8.378;2023-08-08T06:01:43;10.50;99.90
49236;DHT22;35067;48.134;8.378;2023-08-08T06:02:44;10.40;99.90
49236;DHT22;35067;48.134;8.378;2023-08-08T06:03:45;10.50;99.90
49236;DHT22;35067;48.134;8.378;2023-08-08T06:04:46;10.60;99.90
49236;DHT22;35067;48.134;8.378;2023-08-08T06:05:47;10.70;99.90
49236;DHT22;35067;48.134;8.378;2023-08-08T06:06:48;10.80;99.90
49236;DHT22;35067;48.134;8.378;2023-08-08T06:07:49;11.10;99.90
49236;DHT22;35067;48.134;8.378;2023-08-08T06:08:50;11.20;99.90
49236;DHT22;35067;48.134;8.378;2023-08-08T06:09:50;11.40;99.90
49236;DHT22;35067;48.134;8.378;2023-08-08T06:10:51;11.60;99.90
49236;DHT22;35067;48.134;8.378;2023-08-08T06:11:52;11.60;99.90
49236;DHT22;35067;48.134;8.378;2023-08-08T06:12:52;11.50;99.90
49236;DHT22;35067;48.134;8.378;2023-08-08T06:13:53;11.70;99.90
49236;DHT22;35067;48.134;8.378;2023-08-08T06:14:55;11.80;99.90
49236;DHT22;35067;48.134;8.378;2023-08-08T06:15:55;11.90;99.90
49236;DHT22;35067;48.134;8.378;2023-08-08T06:16:56;11.90;99.90
49236;DHT22;35067;48.134;8.378;2023-08-08T06:17:57;11.90;99.90
49236;DHT22;35067;48.134;8.378;2023-08-08T06:18:58;12.10;99.90
49236;DHT22;35067;48.134;8.378;2023-08-08T06:19:58;12.20;99.90
49236;DHT22;35067;48.134;8.378;2023-08-08T06:20:59;12.30;99.90
49236;DHT22;35067;48.134;8.378;2023-08-08T06:22:00;12.40;99.90
49236;DHT22;35067;48.134;8.378;2023-08-08T06:23:01;12.50;99.90
49236;DHT22;35067;48.134;8.378;2023-08-08T06:24:02;12.70;99.90
49236;DHT22;35067;48.134;8.378;2023-08-08T06:25:03;12.60;99.90
49236;DHT22;35067;48.134;8.378;2023-08-08T06:26:04;12.80;99.90
49236;DHT22;35067;48.134;8.378;2023-08-08T06:27:05;12.90;99.60
49236;DHT22;35067;48.134;8.378;2023-08-08T06:28:06;12.90;99.50